Time;durP1;ratioP1;P1;durP2;ratioP2;P2;SDS_P1;SDS_P2;PMS_P1;PMS_P2;Temp;Humidity;BMP_temperature;BMP_pressure;BME280_temperature;BME280_humidity;BME280_pressure;Samples;Min_cycle;Max_cycle;Signal;HPM_P1;HPM_P2
2022/03/10 00:04:57;;;;;;;21.40;16.97;;;4.70;70.50;;;;;;10423522;28;20600;-80
2022/03/10 00:10:00;;;;;;;19.30;15.70;;;4.60;71.70;;;;;;10444276;28;20190;-81
2022/03/10 00:15:04;;;;;;;19.93;15.80;;;4.70;72.00;;;;;;10420735;28;20241;-81
2022/03/10 00:20:07;;;;;;;20.53;16.17;;;4.60;71.10;;;;;;10420124;28;20340;-81
2022/03/10 00:25:11;;;;;;;18.03;15.43;;;4.60;72.00;;;;;;10418255;28;20218;-82
2022/03/10 00:30:13;;;;;;;19.07;15.30;;;4.60;71.00;;;;;;10425920;28;20192;-82
2022/03/10 00:35:19;;;;;;;21.50;15.93;;;4.50;69.80;;;;;;10423757;28;20224;-82
2022/03/10 00:40:23;;;;;;;18.50;15.67;;;4.40;71.60;;;;;;10446785;28;20260;-81
2022/03/10 00:45:25;;;;;;;19.33;15.40;;;4.40;72.90;;;;;;10426495;28;20293;-80
2022/03/10 00:50:27;;;;;;;19.20;16.00;;;4.40;71.80;;;;;;10429295;28;20188;-82
2022/03/10 00:55:31;;;;;;;19.40;16.50;;;4.40;71.90;;;;;;10437652;28;20301;-81
2022/03/10 01:00:33;;;;;;;16.67;14.87;;;4.30;72.00;;;;;;10438779;28;20716;-80
2022/03/10 01:05:36;;;;;;;18.60;14.70;;;4.30;72.80;;;;;;10431991;28;20301;-82
2022/03/10 01:10:40;;;;;;;17.07;13.70;;;4.20;73.70;;;;;;10433132;28;20212;-81
2022/03/10 01:15:45;;;;;;;15.97;13.60;;;4.30;73.00;;;;;;10429114;28;20241;-81
2022/03/10 01:20:48;;;;;;;16.00;13.90;;;4.20;72.10;;;;;;10414659;28;20221;-81
2022/03/10 01:25:51;;;;;;;19.80;13.70;;;4.20;72.40;;;;;;10424774;28;20221;-81
2022/03/10 01:30:53;;;;;;;15.87;12.50;;;4.20;72.50;;;;;;10424022;28;20205;-82
2022/03/10 01:35:56;;;;;;;14.60;12.27;;;4.10;72.80;;;;;;10410382;28;20213;-82
2022/03/10 01:40:59;;;;;;;18.70;13.87;;;4.10;72.20;;;;;;10412127;28;20232;-81
2022/03/10 01:46:02;;;;;;;14.50;12.23;;;4.00;73.60;;;;;;10409669;28;20332;-81
2022/03/10 01:51:04;;;;;;;13.40;11.77;;;4.00;75.70;;;;;;10421257;28;20523;-81
2022/03/10 01:56:08;;;;;;;15.47;12.87;;;4.00;75.30;;;;;;10421828;28;20249;-81
2022/03/10 02:01:11;;;;;;;15.77;11.80;;;4.10;75.40;;;;;;10409655;28;20244;-81
2022/03/10 02:06:14;;;;;;;13.43;12.03;;;4.10;75.00;;;;;;10422155;28;20221;-81
2022/03/10 02:11:17;;;;;;;13.20;11.77;;;4.10;75.40;;;;;;10411666;28;20204;-81
2022/03/10 02:21:39;;;;;;;13.13;11.70;;;4.10;75.00;;;;;;10399661;28;20240;-81
2022/03/10 02:26:42;;;;;;;12.93;11.47;;;4.00;75.40;;;;;;10420153;28;20628;-80
2022/03/10 02:31:44;;;;;;;14.87;12.30;;;4.00;75.50;;;;;;10426044;28;20580;-80
2022/03/10 02:36:47;;;;;;;13.97;12.23;;;4.00;75.80;;;;;;10426811;28;20593;-81
2022/03/10 02:41:50;;;;;;;13.27;11.63;;;4.00;75.10;;;;;;10438018;28;20221;-80
2022/03/10 02:46:52;;;;;;;15.00;11.70;;;4.00;75.70;;;;;;10424863;28;20721;-81
2022/03/10 02:51:54;;;;;;;14.20;12.30;;;3.90;76.00;;;;;;10416927;28;20202;-81
2022/03/10 02:56:58;;;;;;;13.40;12.00;;;3.90;76.00;;;;;;10414868;28;20229;-81
2022/03/10 03:02:00;;;;;;;14.33;11.40;;;3.90;75.20;;;;;;10420174;28;20714;-82
2022/03/10 03:07:03;;;;;;;14.30;12.87;;;3.90;73.30;;;;;;10427869;28;20366;-82
2022/03/10 03:12:07;;;;;;;14.03;12.60;;;3.80;76.30;;;;;;10427675;28;20661;-82
2022/03/10 03:17:09;;;;;;;16.10;13.70;;;3.80;75.80;;;;;;10426301;28;20271;-83
2022/03/10 03:22:11;;;;;;;13.93;12.40;;;3.80;75.60;;;;;;10422948;28;20316;-81
2022/03/10 03:27:15;;;;;;;18.80;13.70;;;3.80;76.50;;;;;;10423799;28;20241;-82
2022/03/10 03:32:17;;;;;;;20.43;13.67;;;3.70;76.20;;;;;;10441284;28;20233;-80
2022/03/10 03:37:19;;;;;;;15.27;12.90;;;3.70;76.30;;;;;;10424397;28;20271;-81
2022/03/10 03:42:22;;;;;;;19.23;15.07;;;3.70;77.30;;;;;;10443833;28;20225;-81
2022/03/10 03:47:24;;;;;;;16.00;13.87;;;3.70;78.30;;;;;;10444438;28;20584;-80
2022/03/10 03:52:26;;;;;;;16.90;15.10;;;3.80;75.60;;;;;;10443085;28;20657;-82
2022/03/10 03:57:30;;;;;;;17.30;15.00;;;3.80;76.00;;;;;;10443528;28;20214;-80
2022/03/10 04:02:32;;;;;;;19.87;15.40;;;3.70;76.90;;;;;;10441897;28;20230;-80
2022/03/10 04:07:34;;;;;;;19.60;16.10;;;3.70;74.70;;;;;;10437339;28;20233;-80
2022/03/10 04:12:37;;;;;;;19.23;16.43;;;3.60;75.70;;;;;;10437493;28;20623;-80
2022/03/10 04:17:40;;;;;;;18.77;15.40;;;3.50;77.10;;;;;;10437144;28;20236;-81
2022/03/10 04:22:42;;;;;;;19.90;15.17;;;3.50;75.30;;;;;;10424103;28;20218;-80
2022/03/10 04:27:46;;;;;;;18.50;15.40;;;3.30;76.40;;;;;;10441037;28;20598;-80
2022/03/10 04:32:49;;;;;;;19.57;15.60;;;3.30;77.10;;;;;;10448061;28;20204;-80
2022/03/10 04:37:52;;;;;;;17.53;15.47;;;3.40;76.50;;;;;;10439554;28;20304;-81
2022/03/10 04:42:56;;;;;;;20.37;16.70;;;3.30;75.00;;;;;;10427219;28;20221;-80
2022/03/10 04:47:58;;;;;;;21.10;15.20;;;3.30;78.10;;;;;;10442760;28;20229;-80
2022/03/10 04:53:01;;;;;;;18.03;15.30;;;3.30;78.20;;;;;;10453673;28;20202;-82
2022/03/10 04:58:05;;;;;;;16.97;15.17;;;3.30;78.10;;;;;;10446332;28;20221;-81
2022/03/10 05:03:07;;;;;;;19.17;15.40;;;3.40;78.40;;;;;;10449128;28;20312;-81
2022/03/10 05:08:09;;;;;;;18.87;15.10;;;3.40;78.10;;;;;;10447974;28;20385;-82
2022/03/10 05:13:13;;;;;;;18.23;14.73;;;3.40;77.60;;;;;;10446636;28;20260;-81
2022/03/10 05:18:15;;;;;;;18.40;14.70;;;3.30;76.80;;;;;;10430253;28;20308;-82
2022/03/10 05:23:17;;;;;;;17.07;14.37;;;3.30;78.00;;;;;;10417885;28;20230;-81
2022/03/10 05:28:20;;;;;;;15.83;13.50;;;3.30;78.50;;;;;;10404770;28;20296;-82
2022/03/10 05:33:22;;;;;;;14.30;12.60;;;3.30;78.00;;;;;;10423561;28;20226;-82
2022/03/10 05:38:24;;;;;;;18.83;13.97;;;3.30;77.80;;;;;;10420733;28;20221;-81
2022/03/10 05:43:28;;;;;;;16.50;12.87;;;3.30;78.90;;;;;;10424676;28;20218;-81
2022/03/10 05:48:33;;;;;;;15.00;12.43;;;3.30;78.00;;;;;;10415855;28;20760;-81
2022/03/10 05:53:35;;;;;;;19.07;14.37;;;3.30;77.70;;;;;;10413833;28;20218;-82
2022/03/10 05:58:39;;;;;;;15.60;13.00;;;3.30;77.90;;;;;;10425097;28;20243;-82
2022/03/10 06:03:41;;;;;;;17.67;14.00;;;3.30;78.40;;;;;;10422783;28;20221;-83
2022/03/10 06:08:43;;;;;;;17.20;13.93;;;3.20;77.60;;;;;;10418536;28;20229;-81
2022/03/10 06:13:47;;;;;;;19.83;15.00;;;3.20;77.40;;;;;;10395756;28;20225;-81
2022/03/10 06:18:49;;;;;;;20.20;14.10;;;3.20;77.80;;;;;;10412046;28;20230;-81
2022/03/10 06:23:51;;;;;;;16.00;13.43;;;3.20;78.70;;;;;;10429635;28;20206;-82
2022/03/10 06:28:54;;;;;;;19.77;16.20;;;3.30;79.40;;;;;;10427402;28;20222;-83
2022/03/10 06:33:57;;;;;;;20.50;15.60;;;3.30;77.60;;;;;;10422739;28;20293;-82
2022/03/10 06:38:59;;;;;;;23.70;17.47;;;3.30;78.40;;;;;;10420490;28;20228;-80
2022/03/10 06:44:03;;;;;;;28.93;15.90;;;3.40;78.40;;;;;;10427118;28;20661;-79
2022/03/10 06:49:05;;;;;;;22.37;17.60;;;3.40;79.30;;;;;;10425201;28;20232;-80
2022/03/10 06:54:07;;;;;;;27.53;17.20;;;3.40;78.90;;;;;;10430489;28;20585;-81
2022/03/10 06:59:10;;;;;;;29.10;20.80;;;3.60;78.20;;;;;;10437766;28;20724;-82
2022/03/10 07:04:13;;;;;;;27.23;19.90;;;3.50;77.70;;;;;;10431092;28;20206;-80
2022/03/10 07:09:15;;;;;;;23.77;18.70;;;3.50;78.80;;;;;;10431248;28;20587;-81
2022/03/10 07:14:19;;;;;;;29.63;20.03;;;3.60;78.50;;;;;;10425476;28;20265;-82
2022/03/10 07:19:21;;;;;;;24.47;19.00;;;3.60;78.10;;;;;;10433102;28;20264;-78
2022/03/10 07:24:25;;;;;;;32.20;18.77;;;3.70;77.80;;;;;;10412269;28;20436;-80
2022/03/10 07:29:29;;;;;;;28.53;17.77;;;3.80;77.30;;;;;;10420919;28;20194;-80
2022/03/10 07:34:31;;;;;;;25.63;18.60;;;3.90;77.60;;;;;;10416452;28;20240;-80
2022/03/10 07:39:33;;;;;;;24.90;17.80;;;4.00;78.60;;;;;;10405841;28;20214;-81
2022/03/10 07:44:37;;;;;;;26.27;19.47;;;4.10;78.20;;;;;;10423343;28;20288;-80
2022/03/10 07:49:39;;;;;;;26.70;18.90;;;4.20;76.80;;;;;;10402358;28;20252;-79
2022/03/10 07:54:41;;;;;;;28.77;18.40;;;4.40;77.10;;;;;;10421764;28;20232;-81
2022/03/10 07:59:45;;;;;;;26.70;21.27;;;4.50;77.30;;;;;;10424760;28;20717;-81
2022/03/10 08:04:47;;;;;;;32.60;22.20;;;4.60;77.70;;;;;;10407562;28;20228;-83
2022/03/10 08:09:49;;;;;;;26.97;19.83;;;4.80;78.60;;;;;;10434155;28;20252;-82
2022/03/10 08:14:52;;;;;;;29.53;20.10;;;4.90;78.00;;;;;;10426263;28;20214;-80
2022/03/10 08:19:55;;;;;;;26.00;20.03;;;5.10;78.50;;;;;;10434651;28;20271;-79
2022/03/10 08:24:57;;;;;;;37.00;24.23;;;5.30;78.50;;;;;;10413833;28;20296;-79
2022/03/10 08:30:01;;;;;;;31.63;22.17;;;5.50;77.70;;;;;;10422569;28;20205;-80
2022/03/10 08:35:03;;;;;;;33.50;22.10;;;5.70;77.80;;;;;;10419277;28;20267;-80
2022/03/10 08:40:06;;;;;;;30.57;22.53;;;5.80;78.30;;;;;;10418252;28;20297;-80
2022/03/10 08:45:10;;;;;;;28.77;21.77;;;6.00;77.90;;;;;;10464323;23;20236;-82
2022/03/10 08:50:16;;;;;;;31.43;23.40;;;6.20;76.50;;;;;;10487848;28;20219;-84
2022/03/10 08:55:18;;;;;;;30.70;21.33;;;6.40;76.80;;;;;;10525623;28;20219;-81
2022/03/10 09:00:22;;;;;;;31.43;23.83;;;6.60;75.50;;;;;;10507767;28;20779;-82
2022/03/10 09:05:24;;;;;;;29.13;22.07;;;6.80;77.20;;;;;;10494370;28;20242;-82
2022/03/10 09:10:27;;;;;;;31.30;23.03;;;6.90;77.50;;;;;;10492257;28;20216;-83
2022/03/10 09:15:32;;;;;;;34.20;23.60;;;7.20;76.50;;;;;;10507325;28;20275;-83
2022/03/10 09:20:34;;;;;;;26.50;21.60;;;7.30;76.60;;;;;;10491243;28;20212;-83
2022/03/10 09:25:38;;;;;;;33.33;21.53;;;7.50;76.10;;;;;;10508228;28;20597;-82
2022/03/10 09:30:41;;;;;;;26.10;19.53;;;7.80;73.80;;;;;;10487911;28;20536;-83
2022/03/10 09:35:43;;;;;;;16.10;10.13;;;8.00;71.90;;;;;;10511399;28;20221;-82
2022/03/10 09:40:52;;;;;;;9.67;8.73;;;8.20;69.00;;;;;;10484323;28;20223;-82
2022/03/10 09:45:56;;;;;;;9.97;8.97;;;8.60;66.70;;;;;;10501017;28;20236;-82
2022/03/10 09:50:59;;;;;;;10.50;9.40;;;9.10;65.20;;;;;;10480162;28;20486;-83
2022/03/10 09:56:01;;;;;;;9.80;8.80;;;9.70;61.10;;;;;;10485021;28;20261;-82
2022/03/10 10:01:06;;;;;;;9.83;8.77;;;10.10;60.20;;;;;;10495016;28;20220;-82
2022/03/10 10:06:09;;;;;;;9.20;8.30;;;10.50;58.70;;;;;;10500149;28;20272;-83
2022/03/10 10:11:15;;;;;;;9.83;8.03;;;10.70;59.30;;;;;;10486784;28;20228;-83
2022/03/10 10:16:18;;;;;;;10.20;8.50;;;10.90;58.00;;;;;;10489194;28;20216;-83
2022/03/10 10:21:22;;;;;;;9.60;7.77;;;11.00;57.30;;;;;;10482056;28;20776;-83
2022/03/10 10:26:28;;;;;;;11.47;8.40;;;11.00;57.80;;;;;;10475996;28;20220;-83
2022/03/10 10:31:37;;;;;;;8.33;7.03;;;10.90;57.90;;;;;;10477938;28;20585;-85
2022/03/10 10:36:41;;;;;;;8.00;7.30;;;10.80;58.50;;;;;;10484746;28;20231;-83
2022/03/10 10:41:45;;;;;;;7.27;6.57;;;10.70;58.50;;;;;;10475885;28;20248;-86
2022/03/10 10:46:50;;;;;;;7.17;5.30;;;10.80;57.00;;;;;;10482567;28;20283;-85
2022/03/10 10:51:53;;;;;;;8.13;7.17;;;10.80;58.80;;;;;;10494137;28;20197;-85
2022/03/10 10:56:57;;;;;;;7.73;7.00;;;10.80;57.30;;;;;;10478445;28;20247;-85
2022/03/10 11:02:09;;;;;;;8.90;7.23;;;10.80;57.40;;;;;;10473664;28;20223;-86
2022/03/10 11:07:12;;;;;;;7.83;7.03;;;11.00;57.40;;;;;;10470515;28;20608;-85
2022/03/10 11:12:16;;;;;;;6.17;5.57;;;11.00;57.40;;;;;;10489564;28;20188;-85
2022/03/10 11:17:19;;;;;;;5.33;4.83;;;11.10;57.00;;;;;;10474788;28;20221;-86
2022/03/10 11:22:35;;;;;;;4.93;4.37;;;11.20;55.10;;;;;;10485303;28;20232;-84
2022/03/10 11:27:42;;;;;;;4.70;4.30;;;11.30;55.70;;;;;;10492789;28;20303;-85
2022/03/10 11:33:00;;;;;;;5.00;4.60;;;11.30;55.20;;;;;;10498217;28;20239;-86
2022/03/10 11:38:03;;;;;;;5.77;4.60;;;11.30;55.80;;;;;;10502822;28;20255;-85
2022/03/10 11:43:05;;;;;;;4.60;4.20;;;11.40;53.40;;;;;;10502933;28;20481;-84
2022/03/10 11:48:37;;;;;;;5.40;4.90;;;11.40;54.20;;;;;;10478603;28;20731;-85
2022/03/10 11:53:59;;;;;;;5.40;4.90;;;11.40;53.70;;;;;;10479958;28;20728;-85
2022/03/10 11:59:17;;;;;;;4.70;4.20;;;11.40;54.20;;;;;;10471360;28;20219;-84
2022/03/10 12:04:22;;;;;;;3.90;3.57;;;11.50;52.60;;;;;;10492014;28;20239;-85
2022/03/10 12:09:29;;;;;;;4.10;3.80;;;11.60;53.20;;;;;;10483673;28;20220;-85
2022/03/10 12:14:31;;;;;;;4.23;3.93;;;11.90;51.30;;;;;;10476869;28;20202;-86
2022/03/10 12:20:07;;;;;;;4.17;3.77;;;12.00;52.00;;;;;;10477829;28;20220;-86
2022/03/10 12:25:21;;;;;;;4.10;3.80;;;12.00;51.30;;;;;;10467014;28;20216;-85
2022/03/10 12:30:26;;;;;;;5.50;4.33;;;12.00;51.70;;;;;;10493692;28;20201;-85
2022/03/10 12:35:31;;;;;;;5.40;4.20;;;12.10;50.40;;;;;;10473193;28;20676;-86
2022/03/10 12:40:37;;;;;;;4.57;4.17;;;12.10;51.80;;;;;;10482171;28;20223;-86
2022/03/10 12:45:46;;;;;;;4.70;4.30;;;12.10;50.20;;;;;;10480520;28;20277;-83
2022/03/10 12:50:49;;;;;;;6.37;5.10;;;12.30;48.70;;;;;;10514782;28;20208;-85
2022/03/10 12:55:57;;;;;;;5.20;4.70;;;12.40;49.30;;;;;;10500303;28;20303;-83
2022/03/10 13:01:06;;;;;;;5.63;5.10;;;12.50;49.40;;;;;;10506025;28;20232;-83
2022/03/10 13:06:12;;;;;;;5.20;4.80;;;12.40;50.40;;;;;;10482618;28;20224;-83
2022/03/10 13:11:20;;;;;;;7.03;5.27;;;12.30;51.80;;;;;;10507748;28;20193;-83
2022/03/10 13:16:22;;;;;;;5.90;4.80;;;12.20;49.00;;;;;;10514863;28;20230;-82
2022/03/10 13:21:24;;;;;;;6.40;5.50;;;12.40;48.10;;;;;;10511845;28;20204;-82
2022/03/10 13:26:28;;;;;;;5.67;4.33;;;12.50;48.30;;;;;;10497414;28;20220;-83
2022/03/10 13:31:31;;;;;;;5.83;5.10;;;12.40;49.70;;;;;;10509476;28;20193;-82
2022/03/10 13:36:33;;;;;;;5.80;5.30;;;12.30;49.00;;;;;;10483336;28;20220;-83
2022/03/10 13:41:37;;;;;;;6.47;5.80;;;12.50;48.90;;;;;;10493945;28;20221;-83
2022/03/10 13:46:39;;;;;;;5.40;4.90;;;12.50;48.60;;;;;;10483569;28;20296;-83
2022/03/10 13:51:41;;;;;;;5.00;4.60;;;12.50;46.10;;;;;;10476080;28;21098;-82
2022/03/10 13:56:48;;;;;;;6.03;5.40;;;12.70;45.40;;;;;;10507505;28;20295;-82
2022/03/10 14:01:50;;;;;;;5.80;5.30;;;12.70;46.50;;;;;;10511410;28;20222;-82
2022/03/10 14:06:54;;;;;;;5.57;5.07;;;12.70;44.80;;;;;;10505847;28;20688;-82
2022/03/10 14:12:14;;;;;;;7.83;5.40;;;12.70;47.00;;;;;;10498382;28;20204;-83
2022/03/10 14:17:16;;;;;;;5.40;4.97;;;12.60;46.50;;;;;;10492111;28;20220;-82
2022/03/10 14:22:20;;;;;;;6.00;5.40;;;12.50;47.20;;;;;;10502994;28;20228;-83
2022/03/10 14:27:24;;;;;;;6.50;4.93;;;12.50;43.30;;;;;;10496139;28;20220;-82
2022/03/10 14:32:26;;;;;;;6.07;5.23;;;12.70;42.90;;;;;;10528104;28;20246;-83
2022/03/10 14:37:29;;;;;;;8.03;4.83;;;13.00;40.50;;;;;;10503916;28;20224;-81
2022/03/10 14:42:36;;;;;;;5.60;5.10;;;13.20;40.60;;;;;;10529621;28;20765;-82
2022/03/10 14:47:38;;;;;;;6.20;4.83;;;13.40;40.00;;;;;;10515086;22;20581;-78
2022/03/10 14:52:41;;;;;;;4.73;4.33;;;13.40;40.10;;;;;;10492357;28;20275;-78
2022/03/10 14:57:45;;;;;;;4.73;4.10;;;13.40;39.10;;;;;;10485263;28;20220;-80
2022/03/10 15:02:47;;;;;;;5.03;4.53;;;13.40;40.30;;;;;;10486718;28;20942;-79
2022/03/10 15:07:49;;;;;;;5.00;4.60;;;13.40;39.30;;;;;;10494895;28;20216;-79
2022/03/10 15:12:52;;;;;;;5.47;5.00;;;13.30;40.40;;;;;;10505314;28;20204;-79
2022/03/10 15:17:55;;;;;;;5.43;4.93;;;13.40;38.90;;;;;;10484197;28;20278;-78
2022/03/10 15:22:58;;;;;;;5.80;5.17;;;13.40;39.10;;;;;;10485960;28;20235;-80
2022/03/10 15:28:03;;;;;;;8.43;5.77;;;13.40;40.30;;;;;;10484343;28;20307;-80
2022/03/10 15:33:05;;;;;;;5.80;5.30;;;13.60;37.80;;;;;;10487322;28;20197;-80
2022/03/10 15:38:07;;;;;;;6.27;5.63;;;13.60;37.80;;;;;;10485575;28;20634;-80
2022/03/10 15:43:11;;;;;;;6.03;5.53;;;13.70;38.70;;;;;;10485610;28;20235;-78
2022/03/10 15:48:14;;;;;;;8.53;6.17;;;13.70;38.20;;;;;;10484138;28;20220;-79
2022/03/10 15:53:22;;;;;;;7.80;5.50;;;13.70;39.20;;;;;;10499744;28;20632;-79
2022/03/10 15:58:27;;;;;;;7.33;5.53;;;13.80;38.60;;;;;;10499369;28;20319;-79
2022/03/10 16:03:29;;;;;;;6.50;5.90;;;13.80;38.80;;;;;;10484855;28;20239;-79
2022/03/10 16:08:31;;;;;;;6.47;5.87;;;13.60;42.30;;;;;;10484787;28;20216;-79
2022/03/10 16:13:35;;;;;;;8.87;5.80;;;13.50;38.70;;;;;;10503259;28;20668;-80
2022/03/10 16:18:37;;;;;;;10.40;6.40;;;13.40;39.20;;;;;;10484331;28;20303;-79
2022/03/10 16:23:39;;;;;;;6.80;5.70;;;13.40;39.40;;;;;;10467691;28;20254;-78
2022/03/10 16:28:43;;;;;;;7.37;6.63;;;13.40;38.50;;;;;;10501574;28;20216;-79
2022/03/10 16:33:45;;;;;;;7.23;6.53;;;13.40;38.70;;;;;;10484849;28;20197;-79
2022/03/10 16:38:48;;;;;;;7.10;5.73;;;13.30;39.20;;;;;;10482613;28;20227;-79
2022/03/10 16:43:51;;;;;;;8.47;6.50;;;13.30;39.20;;;;;;10491604;28;20212;-79
2022/03/10 16:48:54;;;;;;;7.00;5.80;;;13.20;39.10;;;;;;10497619;28;20235;-78
2022/03/10 16:53:57;;;;;;;6.90;6.20;;;13.20;39.10;;;;;;10498784;28;20224;-79
2022/03/10 16:59:01;;;;;;;7.03;5.87;;;13.00;40.50;;;;;;10480405;28;20213;-78
2022/03/10 17:04:05;;;;;;;8.20;5.53;;;13.00;40.00;;;;;;10497664;28;20220;-78
2022/03/10 17:09:07;;;;;;;8.63;5.40;;;12.80;41.20;;;;;;10497108;28;20266;-78
2022/03/10 17:14:11;;;;;;;7.10;6.50;;;12.70;43.10;;;;;;10496804;28;20275;-79
2022/03/10 17:19:14;;;;;;;7.77;6.97;;;12.50;41.50;;;;;;10478848;28;20217;-79
2022/03/10 17:24:16;;;;;;;7.77;6.60;;;12.40;42.50;;;;;;10494900;28;20220;-78
2022/03/10 17:29:20;;;;;;;7.60;6.00;;;12.20;44.30;;;;;;10478226;28;20208;-78
2022/03/10 17:34:22;;;;;;;7.20;6.50;;;12.10;44.90;;;;;;10496847;28;20283;-78
2022/03/10 17:39:24;;;;;;;8.33;7.60;;;11.90;45.70;;;;;;10478494;28;20212;-78
2022/03/10 17:44:28;;;;;;;8.67;7.83;;;11.70;45.80;;;;;;10495978;28;20216;-79
2022/03/10 17:49:30;;;;;;;15.30;10.30;;;11.40;46.40;;;;;;10491242;28;20224;-79
2022/03/10 17:54:32;;;;;;;14.20;9.13;;;11.20;47.40;;;;;;10496304;28;20203;-80
2022/03/10 17:59:35;;;;;;;7.00;6.40;;;11.00;48.10;;;;;;10478695;28;20213;-78
2022/03/10 18:04:38;;;;;;;9.03;7.90;;;10.80;48.20;;;;;;10477246;28;20216;-79
2022/03/10 18:09:40;;;;;;;10.43;9.20;;;10.70;47.20;;;;;;10477990;28;20215;-79
2022/03/10 18:14:44;;;;;;;10.93;9.80;;;10.60;48.10;;;;;;10495721;28;20196;-79
2022/03/10 18:19:47;;;;;;;9.60;8.50;;;10.50;49.20;;;;;;10485292;28;20212;-79
2022/03/10 18:24:53;;;;;;;8.70;7.90;;;10.40;49.90;;;;;;10496254;28;20216;-81
2022/03/10 18:30:04;;;;;;;9.23;8.33;;;10.30;49.80;;;;;;10467530;28;20220;-81
2022/03/10 18:35:08;;;;;;;12.13;8.83;;;10.20;51.00;;;;;;10485056;28;20188;-79
2022/03/10 18:40:11;;;;;;;10.70;8.80;;;10.10;49.70;;;;;;10513742;28;20242;-80
2022/03/10 18:45:17;;;;;;;10.57;9.50;;;10.00;50.20;;;;;;10484406;28;20286;-79
2022/03/10 18:50:20;;;;;;;12.53;10.97;;;9.80;51.90;;;;;;10485974;28;20227;-79
2022/03/10 18:55:29;;;;;;;13.30;11.90;;;9.70;52.10;;;;;;10504512;28;20211;-80
2022/03/10 19:00:33;;;;;;;14.50;11.87;;;9.60;51.90;;;;;;10483998;28;20246;-79
2022/03/10 19:05:39;;;;;;;14.17;10.77;;;9.50;52.00;;;;;;10478530;28;20220;-80
2022/03/10 19:10:41;;;;;;;9.93;9.00;;;9.30;52.10;;;;;;10480895;28;20296;-80
2022/03/10 19:15:47;;;;;;;11.00;9.93;;;9.20;53.40;;;;;;10481759;28;20652;-80
2022/03/10 19:20:49;;;;;;;12.63;11.23;;;9.10;53.30;;;;;;10466227;28;20200;-81
2022/03/10 19:25:52;;;;;;;13.37;11.03;;;8.90;54.30;;;;;;10464635;28;20721;-81
2022/03/10 19:30:58;;;;;;;24.87;19.50;;;8.90;53.70;;;;;;10485181;28;20220;-80
2022/03/10 19:36:00;;;;;;;16.43;12.23;;;8.70;54.30;;;;;;10502414;28;20218;-78
2022/03/10 19:41:03;;;;;;;11.93;10.73;;;8.60;55.20;;;;;;10467177;28;20227;-80
2022/03/10 19:46:07;;;;;;;13.73;10.67;;;8.50;55.60;;;;;;10489948;28;20240;-80
2022/03/10 19:51:09;;;;;;;17.80;14.40;;;8.30;55.80;;;;;;10490743;28;20192;-80
2022/03/10 19:56:17;;;;;;;13.97;12.23;;;8.20;55.40;;;;;;10442796;28;20240;-80
2022/03/10 20:01:34;;;;;;;20.27;13.17;;;8.20;55.60;;;;;;10440945;28;20197;-80
2022/03/10 20:06:41;;;;;;;15.53;11.07;;;8.10;55.10;;;;;;10468968;28;20224;-80
2022/03/10 20:11:43;;;;;;;11.13;10.00;;;8.00;56.70;;;;;;10505387;28;20196;-80
2022/03/10 20:16:46;;;;;;;13.50;11.53;;;8.00;55.60;;;;;;10506672;28;20212;-79
2022/03/10 20:21:49;;;;;;;11.83;10.63;;;7.90;55.60;;;;;;10507107;28;20220;-80
2022/03/10 20:26:51;;;;;;;12.40;10.90;;;7.80;55.80;;;;;;10506110;28;20227;-80
2022/03/10 20:31:54;;;;;;;12.60;11.13;;;7.80;55.90;;;;;;10489213;28;20280;-80
2022/03/10 20:36:56;;;;;;;12.53;9.57;;;7.70;56.60;;;;;;10506754;28;20240;-80
2022/03/10 20:42:02;;;;;;;15.70;10.90;;;7.60;57.10;;;;;;10509758;28;20633;-80
2022/03/10 20:47:06;;;;;;;11.53;7.60;;;7.60;56.40;;;;;;10515411;28;20364;-80
2022/03/10 20:52:10;;;;;;;8.80;7.90;;;7.60;56.30;;;;;;10503032;28;20276;-81
2022/03/10 20:57:12;;;;;;;8.70;7.87;;;7.50;56.20;;;;;;10484090;28;20216;-80
2022/03/10 21:02:16;;;;;;;9.47;8.37;;;7.40;55.10;;;;;;10483619;28;20204;-80
2022/03/10 21:07:18;;;;;;;9.57;7.13;;;7.30;57.00;;;;;;10501876;28;20213;-81
2022/03/10 21:12:20;;;;;;;8.60;7.80;;;7.30;56.20;;;;;;10467607;28;20608;-81
2022/03/10 21:17:24;;;;;;;8.60;7.60;;;7.30;56.00;;;;;;10484529;28;20262;-81
2022/03/10 21:22:26;;;;;;;7.80;7.10;;;7.20;57.50;;;;;;10484474;28;20282;-81
2022/03/10 21:27:28;;;;;;;8.10;7.33;;;7.20;56.20;;;;;;10484709;28;20599;-81
2022/03/10 21:32:32;;;;;;;7.57;6.47;;;7.20;56.40;;;;;;10518133;28;20196;-80
2022/03/10 21:37:34;;;;;;;9.27;6.87;;;7.20;57.50;;;;;;10483254;28;20216;-81
2022/03/10 21:42:36;;;;;;;7.80;6.70;;;7.10;56.00;;;;;;10501179;28;20216;-80
2022/03/10 21:47:40;;;;;;;7.43;6.70;;;7.00;57.50;;;;;;10481752;28;20223;-80
2022/03/10 21:52:42;;;;;;;7.67;6.87;;;6.90;57.10;;;;;;10464015;28;20668;-80
2022/03/10 21:57:45;;;;;;;8.20;7.27;;;6.90;57.00;;;;;;10464547;28;20663;-80
2022/03/10 22:02:49;;;;;;;10.33;6.90;;;6.80;57.40;;;;;;10500454;28;20212;-80
2022/03/10 22:07:51;;;;;;;6.57;5.93;;;6.70;56.70;;;;;;10498106;28;20204;-81
2022/03/10 22:12:54;;;;;;;8.33;7.23;;;6.60;57.90;;;;;;10480078;28;20188;-81
2022/03/10 22:18:00;;;;;;;6.93;6.30;;;6.50;58.40;;;;;;10466366;28;20274;-81
2022/03/10 22:23:05;;;;;;;7.53;6.83;;;6.50;59.00;;;;;;10503233;28;20196;-80
2022/03/10 22:28:07;;;;;;;7.70;6.90;;;6.40;59.90;;;;;;10483764;28;20274;-80
2022/03/10 22:33:10;;;;;;;6.70;6.00;;;6.30;59.40;;;;;;10480338;28;20193;-79
2022/03/10 22:38:31;;;;;;;6.80;6.10;;;6.30;59.10;;;;;;10475697;28;20590;-79
2022/03/10 22:43:33;;;;;;;8.73;6.90;;;6.30;60.90;;;;;;10475565;28;20216;-79
2022/03/10 22:48:48;;;;;;;8.10;7.30;;;6.30;60.80;;;;;;10481430;28;20247;-78
2022/03/10 22:59:38;;;;;;;6.27;5.67;;;6.30;59.20;;;;;;10461964;28;20613;-79
2022/03/10 23:10:07;;;;;;;6.37;5.77;;;6.20;59.70;;;;;;10486079;28;20217;-79
2022/03/10 23:15:13;;;;;;;7.30;6.20;;;6.20;60.10;;;;;;10493104;28;20219;-79
2022/03/10 23:20:16;;;;;;;7.40;6.20;;;6.10;60.40;;;;;;10499763;28;20208;-78
2022/03/10 23:25:18;;;;;;;6.77;6.13;;;6.10;60.10;;;;;;10499326;28;20253;-78
2022/03/10 23:30:21;;;;;;;6.37;5.77;;;6.00;61.20;;;;;;10500206;28;20203;-78
2022/03/10 23:35:25;;;;;;;6.90;6.20;;;6.00;61.00;;;;;;10480995;28;20688;-78
2022/03/10 23:40:28;;;;;;;7.27;6.47;;;5.90;61.30;;;;;;10481599;28;20234;-78
2022/03/10 23:45:30;;;;;;;7.07;6.37;;;5.80;61.00;;;;;;10498417;28;20316;-78
2022/03/10 23:50:33;;;;;;;8.63;7.30;;;5.80;62.00;;;;;;10499354;28;20201;-78
2022/03/10 23:55:35;;;;;;;7.40;6.70;;;5.80;62.20;;;;;;10480717;28;20720;-78
